Bishop, Illinois
Current Conditions -  °F | °C
As of 11:34 AM on Friday 24 Oct 2014 (Local Time) from KPIA Reporting Station
Haze Haze  
Wind Chill: 60°   Ceiling: Unl
Heat Index: 60°   Visibility: 2mi
Dew Point: 53°   Wind: 6mph
Humidity: 78%   Direction: 230°SW
Pressure: 30.09"   Gusts: NA
Location:  40.3389°N, 89.8274°W
Report Text: KPIA 241634Z 23005KT 2SM HZ CLR 16/12 A3009 RMK AO2 T01560117
Loading
Personal Weather Stations






























Interactive Weather Map New forecast layout! Learn more

10-Day Weather Forecast

Advertisements
Track Severe Weather on mobile